sensor_id;sensor_type;location;lat;lon;timestamp;pressure;altitude;pressure_sealevel;temperature;humidity
62038;BME280;47991;42.974;12.082;2022-10-31T00:01:27;98444.24;;;10.07;77.87
62038;BME280;47991;42.974;12.082;2022-10-31T00:03:54;98447.06;;;10.08;77.72
62038;BME280;47991;42.974;12.082;2022-10-31T00:06:22;98443.30;;;10.11;78.10
62038;BME280;47991;42.974;12.082;2022-10-31T00:08:55;98443.23;;;10.15;77.30
62038;BME280;47991;42.974;12.082;2022-10-31T00:11:24;98447.94;;;10.19;77.05
62038;BME280;47991;42.974;12.082;2022-10-31T00:13:52;98449.80;;;10.13;77.06
62038;BME280;47991;42.974;12.082;2022-10-31T00:16:22;98450.65;;;10.04;78.12
62038;BME280;47991;42.974;12.082;2022-10-31T00:18:58;98446.50;;;9.98;77.79
62038;BME280;47991;42.974;12.082;2022-10-31T00:21:27;98447.59;;;9.96;78.34
62038;BME280;47991;42.974;12.082;2022-10-31T00:23:54;98448.31;;;9.96;78.34
62038;BME280;47991;42.974;12.082;2022-10-31T00:26:22;98446.70;;;9.96;78.12
62038;BME280;47991;42.974;12.082;2022-10-31T00:28:50;98448.64;;;9.97;77.74
62038;BME280;47991;42.974;12.082;2022-10-31T00:31:18;98446.63;;;9.89;78.32
62038;BME280;47991;42.974;12.082;2022-10-31T00:33:46;98445.88;;;9.80;78.27
62038;BME280;47991;42.974;12.082;2022-10-31T00:36:16;98443.46;;;9.77;79.50
62038;BME280;47991;42.974;12.082;2022-10-31T00:38:44;98446.41;;;9.79;79.72
62038;BME280;47991;42.974;12.082;2022-10-31T00:41:14;98445.74;;;9.78;79.53
62038;BME280;47991;42.974;12.082;2022-10-31T00:43:42;98445.95;;;9.76;79.38
62038;BME280;47991;42.974;12.082;2022-10-31T00:46:11;98443.02;;;9.83;79.21
62038;BME280;47991;42.974;12.082;2022-10-31T00:48:40;98444.40;;;9.85;79.33
62038;BME280;47991;42.974;12.082;2022-10-31T00:51:08;98445.10;;;9.85;79.67
62038;BME280;47991;42.974;12.082;2022-10-31T00:53:36;98441.36;;;9.88;78.68
62038;BME280;47991;42.974;12.082;2022-10-31T00:56:03;98441.54;;;9.88;78.29
62038;BME280;47991;42.974;12.082;2022-10-31T00:58:32;98441.97;;;9.82;78.88
62038;BME280;47991;42.974;12.082;2022-10-31T01:00:59;98440.11;;;9.76;78.11
62038;BME280;47991;42.974;12.082;2022-10-31T01:03:30;98442.14;;;9.70;78.56
62038;BME280;47991;42.974;12.082;2022-10-31T01:08:34;98437.58;;;9.67;79.20
62038;BME280;47991;42.974;12.082;2022-10-31T01:13:42;98441.09;;;9.68;79.63
62038;BME280;47991;42.974;12.082;2022-10-31T01:16:20;98437.54;;;9.71;79.18
62038;BME280;47991;42.974;12.082;2022-10-31T01:18:48;98442.45;;;9.73;79.71
62038;BME280;47991;42.974;12.082;2022-10-31T01:21:22;98439.81;;;9.72;79.18
62038;BME280;47991;42.974;12.082;2022-10-31T01:23:52;98437.74;;;9.69;79.33
62038;BME280;47991;42.974;12.082;2022-10-31T01:26:22;98440.25;;;9.66;79.98
62038;BME280;47991;42.974;12.082;2022-10-31T01:28:52;98437.13;;;9.62;79.12
62038;BME280;47991;42.974;12.082;2022-10-31T01:31:21;98435.81;;;9.56;79.36
62038;BME280;47991;42.974;12.082;2022-10-31T01:33:49;98437.32;;;9.48;79.80
62038;BME280;47991;42.974;12.082;2022-10-31T01:36:22;98438.05;;;9.47;79.97
62038;BME280;47991;42.974;12.082;2022-10-31T01:38:53;98439.41;;;9.50;79.85
62038;BME280;47991;42.974;12.082;2022-10-31T01:41:24;98440.61;;;9.52;79.97
62038;BME280;47991;42.974;12.082;2022-10-31T01:44:44;98433.95;;;9.49;79.91
62038;BME280;47991;42.974;12.082;2022-10-31T01:47:05;98434.66;;;9.49;79.96
62038;BME280;47991;42.974;12.082;2022-10-31T01:49:42;98437.83;;;9.50;79.86
62038;BME280;47991;42.974;12.082;2022-10-31T01:52:40;98433.73;;;9.52;80.18
62038;BME280;47991;42.974;12.082;2022-10-31T01:57:53;98435.51;;;9.38;79.28
62038;BME280;47991;42.974;12.082;2022-10-31T02:00:23;98433.66;;;9.30;79.82
62038;BME280;47991;42.974;12.082;2022-10-31T02:02:51;98430.76;;;9.24;79.96
62038;BME280;47991;42.974;12.082;2022-10-31T02:05:22;98427.94;;;9.22;80.84
62038;BME280;47991;42.974;12.082;2022-10-31T02:08:06;98425.98;;;9.25;80.96
62038;BME280;47991;42.974;12.082;2022-10-31T02:10:36;98422.44;;;9.26;80.54
62038;BME280;47991;42.974;12.082;2022-10-31T02:13:06;98424.34;;;9.28;80.10
62038;BME280;47991;42.974;12.082;2022-10-31T02:15:37;98426.27;;;9.29;80.78
62038;BME280;47991;42.974;12.082;2022-10-31T02:18:05;98423.25;;;9.30;80.09
62038;BME280;47991;42.974;12.082;2022-10-31T02:21:07;98425.73;;;9.29;80.18
62038;BME280;47991;42.974;12.082;2022-10-31T02:26:45;98423.98;;;9.14;80.38
62038;BME280;47991;42.974;12.082;2022-10-31T02:38:17;98430.06;;;9.06;80.97
62038;BME280;47991;42.974;12.082;2022-10-31T02:40:56;98425.79;;;9.10;81.44
62038;BME280;47991;42.974;12.082;2022-10-31T02:43:51;98425.25;;;9.11;81.01
62038;BME280;47991;42.974;12.082;2022-10-31T02:49:45;98429.58;;;9.18;81.25
62038;BME280;47991;42.974;12.082;2022-10-31T02:52:27;98430.41;;;9.23;80.88
62038;BME280;47991;42.974;12.082;2022-10-31T02:55:12;98434.08;;;9.26;80.81
62038;BME280;47991;42.974;12.082;2022-10-31T02:57:41;98434.23;;;9.27;80.88
62038;BME280;47991;42.974;12.082;2022-10-31T03:00:10;98431.10;;;9.25;80.21
62038;BME280;47991;42.974;12.082;2022-10-31T03:02:43;98433.39;;;9.24;80.43
62038;BME280;47991;42.974;12.082;2022-10-31T03:08:50;98432.66;;;9.11;80.60
62038;BME280;47991;42.974;12.082;2022-10-31T03:10:58;98434.82;;;9.07;80.64
62038;BME280;47991;42.974;12.082;2022-10-31T03:13:57;98430.97;;;9.05;81.21
62038;BME280;47991;42.974;12.082;2022-10-31T03:19:23;98439.67;;;8.98;81.37
62038;BME280;47991;42.974;12.082;2022-10-31T03:21:57;98438.67;;;8.95;81.47
62038;BME280;47991;42.974;12.082;2022-10-31T03:24:31;98443.40;;;8.97;81.48
62038;BME280;47991;42.974;12.082;2022-10-31T03:27:00;98443.27;;;8.93;81.11
62038;BME280;47991;42.974;12.082;2022-10-31T03:29:34;98444.34;;;8.92;81.17
62038;BME280;47991;42.974;12.082;2022-10-31T03:32:15;98442.75;;;8.92;81.36
62038;BME280;47991;42.974;12.082;2022-10-31T03:34:46;98441.19;;;8.90;81.18
62038;BME280;47991;42.974;12.082;2022-10-31T03:37:18;98444.96;;;8.84;80.95
62038;BME280;47991;42.974;12.082;2022-10-31T03:39:48;98447.65;;;8.79;80.98
62038;BME280;47991;42.974;12.082;2022-10-31T03:42:28;98443.48;;;8.73;81.58
62038;BME280;47991;42.974;12.082;2022-10-31T03:45:01;98448.79;;;8.70;81.47
62038;BME280;47991;42.974;12.082;2022-10-31T03:47:30;98447.58;;;8.69;82.21
62038;BME280;47991;42.974;12.082;2022-10-31T03:50:00;98445.30;;;8.68;81.76
62038;BME280;47991;42.974;12.082;2022-10-31T03:57:51;98446.27;;;8.77;81.37
62038;BME280;47991;42.974;12.082;2022-10-31T04:00:22;98448.75;;;8.75;82.22
62038;BME280;47991;42.974;12.082;2022-10-31T04:05:20;98450.95;;;8.65;81.89
62038;BME280;47991;42.974;12.082;2022-10-31T04:07:51;98449.73;;;8.64;81.63
62038;BME280;47991;42.974;12.082;2022-10-31T04:10:22;98450.84;;;8.59;81.52
62038;BME280;47991;42.974;12.082;2022-10-31T04:13:03;98454.73;;;8.58;82.30
62038;BME280;47991;42.974;12.082;2022-10-31T04:15:42;98454.39;;;8.57;82.46
62038;BME280;47991;42.974;12.082;2022-10-31T04:18:10;98458.45;;;8.56;82.44
62038;BME280;47991;42.974;12.082;2022-10-31T04:20:40;98457.59;;;8.54;82.80
62038;BME280;47991;42.974;12.082;2022-10-31T04:23:18;98455.47;;;8.55;82.91
62038;BME280;47991;42.974;12.082;2022-10-31T04:25:46;98455.77;;;8.59;82.55
62038;BME280;47991;42.974;12.082;2022-10-31T04:28:14;98456.42;;;8.66;82.24
62038;BME280;47991;42.974;12.082;2022-10-31T04:30:43;98458.69;;;8.68;82.19
62038;BME280;47991;42.974;12.082;2022-10-31T04:33:13;98455.70;;;8.67;82.12
62038;BME280;47991;42.974;12.082;2022-10-31T04:35:42;98457.05;;;8.73;81.79
62038;BME280;47991;42.974;12.082;2022-10-31T04:38:10;98460.77;;;8.72;82.10
62038;BME280;47991;42.974;12.082;2022-10-31T04:40:38;98460.23;;;8.72;82.20
62038;BME280;47991;42.974;12.082;2022-10-31T04:43:15;98460.98;;;8.68;81.97
62038;BME280;47991;42.974;12.082;2022-10-31T04:45:44;98461.90;;;8.64;82.18
62038;BME280;47991;42.974;12.082;2022-10-31T04:48:12;98464.21;;;8.63;82.33
62038;BME280;47991;42.974;12.082;2022-10-31T04:50:40;98464.00;;;8.65;82.24
62038;BME280;47991;42.974;12.082;2022-10-31T04:53:08;98465.62;;;8.62;82.17
62038;BME280;47991;42.974;12.082;2022-10-31T04:55:42;98463.94;;;8.55;82.49
62038;BME280;47991;42.974;12.082;2022-10-31T04:58:22;98462.59;;;8.46;82.74
62038;BME280;47991;42.974;12.082;2022-10-31T05:00:53;98459.99;;;8.38;82.66
62038;BME280;47991;42.974;12.082;2022-10-31T05:03:22;98461.25;;;8.35;82.88
62038;BME280;47991;42.974;12.082;2022-10-31T05:05:50;98462.84;;;8.34;82.64
62038;BME280;47991;42.974;12.082;2022-10-31T05:08:18;98461.25;;;8.33;83.14
62038;BME280;47991;42.974;12.082;2022-10-31T05:10:49;98464.06;;;8.35;82.85
62038;BME280;47991;42.974;12.082;2022-10-31T05:13:17;98463.48;;;8.39;82.76
62038;BME280;47991;42.974;12.082;2022-10-31T05:16:17;98460.34;;;8.38;82.67
62038;BME280;47991;42.974;12.082;2022-10-31T05:19:23;98460.20;;;8.33;82.57
62038;BME280;47991;42.974;12.082;2022-10-31T05:22:09;98461.07;;;8.35;82.87
62038;BME280;47991;42.974;12.082;2022-10-31T05:24:37;98463.05;;;8.31;82.90
62038;BME280;47991;42.974;12.082;2022-10-31T05:27:05;98461.70;;;8.23;82.82
62038;BME280;47991;42.974;12.082;2022-10-31T05:29:32;98465.42;;;8.19;83.00
62038;BME280;47991;42.974;12.082;2022-10-31T05:32:01;98467.04;;;8.15;83.42
62038;BME280;47991;42.974;12.082;2022-10-31T05:35:01;98470.23;;;8.11;83.62
62038;BME280;47991;42.974;12.082;2022-10-31T05:38:02;98467.44;;;8.10;84.09
62038;BME280;47991;42.974;12.082;2022-10-31T05:40:29;98469.88;;;8.12;84.33
62038;BME280;47991;42.974;12.082;2022-10-31T05:42:58;98469.85;;;8.16;83.78
62038;BME280;47991;42.974;12.082;2022-10-31T05:45:26;98472.14;;;8.15;83.34
62038;BME280;47991;42.974;12.082;2022-10-31T05:48:02;98469.70;;;8.13;83.92
62038;BME280;47991;42.974;12.082;2022-10-31T05:51:08;98476.77;;;8.09;83.99
62038;BME280;47991;42.974;12.082;2022-10-31T05:53:36;98478.38;;;8.05;84.40
62038;BME280;47991;42.974;12.082;2022-10-31T05:56:05;98479.77;;;8.06;84.16
62038;BME280;47991;42.974;12.082;2022-10-31T05:58:32;98482.23;;;8.08;83.78
62038;BME280;47991;42.974;12.082;2022-10-31T06:01:03;98485.52;;;8.16;83.66
62038;BME280;47991;42.974;12.082;2022-10-31T06:03:33;98488.43;;;8.28;83.44
62038;BME280;47991;42.974;12.082;2022-10-31T06:06:03;98486.10;;;8.33;83.37
62038;BME280;47991;42.974;12.082;2022-10-31T06:08:36;98491.04;;;8.32;82.82
62038;BME280;47991;42.974;12.082;2022-10-31T06:11:07;98494.00;;;8.37;82.81
62038;BME280;47991;42.974;12.082;2022-10-31T06:13:54;98489.98;;;8.57;82.96
62038;BME280;47991;42.974;12.082;2022-10-31T06:16:34;98491.37;;;8.79;82.95
62038;BME280;47991;42.974;12.082;2022-10-31T06:19:16;98490.10;;;9.47;82.47
62038;BME280;47991;42.974;12.082;2022-10-31T06:21:43;98488.20;;;9.97;81.07
62038;BME280;47991;42.974;12.082;2022-10-31T06:24:11;98489.38;;;10.14;80.59
62038;BME280;47991;42.974;12.082;2022-10-31T06:26:59;98491.14;;;10.26;80.11
62038;BME280;47991;42.974;12.082;2022-10-31T06:29:27;98489.76;;;10.48;79.27
62038;BME280;47991;42.974;12.082;2022-10-31T06:32:04;98492.83;;;10.55;78.83
62038;BME280;47991;42.974;12.082;2022-10-31T06:34:36;98491.54;;;10.47;79.20
62038;BME280;47991;42.974;12.082;2022-10-31T06:37:08;98493.55;;;10.54;79.26
62038;BME280;47991;42.974;12.082;2022-10-31T06:39:39;98499.41;;;10.73;78.06
62038;BME280;47991;42.974;12.082;2022-10-31T06:42:09;98499.02;;;10.86;78.29
62038;BME280;47991;42.974;12.082;2022-10-31T06:44:36;98503.86;;;10.92;77.73
62038;BME280;47991;42.974;12.082;2022-10-31T06:47:23;98503.46;;;10.94;77.77
62038;BME280;47991;42.974;12.082;2022-10-31T06:49:59;98506.95;;;11.07;77.62
62038;BME280;47991;42.974;12.082;2022-10-31T06:52:27;98510.35;;;11.24;77.71
62038;BME280;47991;42.974;12.082;2022-10-31T06:54:54;98514.20;;;11.44;77.14
62038;BME280;47991;42.974;12.082;2022-10-31T06:57:23;98516.71;;;11.52;76.68
62038;BME280;47991;42.974;12.082;2022-10-31T06:59:51;98516.92;;;11.58;76.80
62038;BME280;47991;42.974;12.082;2022-10-31T07:02:31;98516.84;;;11.71;76.77
62038;BME280;47991;42.974;12.082;2022-10-31T07:04:59;98520.84;;;11.84;76.71
62038;BME280;47991;42.974;12.082;2022-10-31T07:07:26;98522.73;;;12.04;76.22
62038;BME280;47991;42.974;12.082;2022-10-31T07:09:56;98526.52;;;12.09;76.03
62038;BME280;47991;42.974;12.082;2022-10-31T07:12:37;98530.36;;;12.11;76.02
62038;BME280;47991;42.974;12.082;2022-10-31T07:15:05;98528.56;;;12.21;76.00
62038;BME280;47991;42.974;12.082;2022-10-31T07:17:33;98530.51;;;12.28;76.22
62038;BME280;47991;42.974;12.082;2022-10-31T07:20:01;98531.50;;;12.40;75.75
62038;BME280;47991;42.974;12.082;2022-10-31T07:22:36;98535.13;;;12.43;75.71
62038;BME280;47991;42.974;12.082;2022-10-31T07:25:05;98534.10;;;12.50;75.60
62038;BME280;47991;42.974;12.082;2022-10-31T07:28:02;98538.03;;;12.63;75.66
62038;BME280;47991;42.974;12.082;2022-10-31T07:30:29;98534.60;;;12.73;75.07
62038;BME280;47991;42.974;12.082;2022-10-31T07:32:57;98535.48;;;12.80;74.99
62038;BME280;47991;42.974;12.082;2022-10-31T07:35:29;98538.95;;;12.90;74.51
62038;BME280;47991;42.974;12.082;2022-10-31T07:38:07;98536.48;;;12.97;74.61
62038;BME280;47991;42.974;12.082;2022-10-31T07:40:35;98536.95;;;12.99;74.44
62038;BME280;47991;42.974;12.082;2022-10-31T07:43:03;98535.14;;;13.28;74.75
62038;BME280;47991;42.974;12.082;2022-10-31T07:45:50;98534.52;;;13.70;72.72
62038;BME280;47991;42.974;12.082;2022-10-31T07:48:38;98534.88;;;13.95;73.51
62038;BME280;47991;42.974;12.082;2022-10-31T07:51:24;98532.95;;;14.12;71.26
62038;BME280;47991;42.974;12.082;2022-10-31T07:54:10;98532.23;;;14.18;70.46
62038;BME280;47991;42.974;12.082;2022-10-31T07:56:38;98535.16;;;14.09;70.32
62038;BME280;47991;42.974;12.082;2022-10-31T07:59:06;98538.68;;;13.93;70.48
62038;BME280;47991;42.974;12.082;2022-10-31T08:01:36;98539.26;;;13.85;72.45
62038;BME280;47991;42.974;12.082;2022-10-31T08:04:26;98539.07;;;13.60;72.36
62038;BME280;47991;42.974;12.082;2022-10-31T08:07:12;98537.08;;;13.62;73.12
62038;BME280;47991;42.974;12.082;2022-10-31T08:09:40;98536.38;;;13.55;72.31
62038;BME280;47991;42.974;12.082;2022-10-31T08:12:17;98533.73;;;13.54;72.04
62038;BME280;47991;42.974;12.082;2022-10-31T08:14:44;98534.69;;;13.58;72.70
62038;BME280;47991;42.974;12.082;2022-10-31T08:17:14;98534.33;;;13.65;72.21
62038;BME280;47991;42.974;12.082;2022-10-31T08:19:47;98531.56;;;13.75;72.17
62038;BME280;47991;42.974;12.082;2022-10-31T08:22:16;98531.67;;;13.89;71.85
62038;BME280;47991;42.974;12.082;2022-10-31T08:24:44;98529.95;;;13.99;72.45
62038;BME280;47991;42.974;12.082;2022-10-31T08:27:12;98527.00;;;14.26;72.31
62038;BME280;47991;42.974;12.082;2022-10-31T08:29:40;98522.06;;;14.53;70.91
62038;BME280;47991;42.974;12.082;2022-10-31T08:32:07;98523.80;;;14.71;69.51
62038;BME280;47991;42.974;12.082;2022-10-31T08:34:55;98520.59;;;15.04;69.22
62038;BME280;47991;42.974;12.082;2022-10-31T08:37:38;98525.10;;;15.87;68.14
62038;BME280;47991;42.974;12.082;2022-10-31T08:40:06;98524.67;;;16.49;66.17
62038;BME280;47991;42.974;12.082;2022-10-31T08:42:35;98518.48;;;17.90;61.83
62038;BME280;47991;42.974;12.082;2022-10-31T08:45:03;98519.89;;;18.14;60.51
62038;BME280;47991;42.974;12.082;2022-10-31T08:47:31;98521.13;;;17.67;61.46
62038;BME280;47991;42.974;12.082;2022-10-31T08:49:59;98521.29;;;17.06;61.61
62038;BME280;47991;42.974;12.082;2022-10-31T08:52:27;98523.17;;;16.68;63.43
62038;BME280;47991;42.974;12.082;2022-10-31T08:54:59;98525.38;;;16.49;63.86
62038;BME280;47991;42.974;12.082;2022-10-31T08:57:54;98524.86;;;16.35;65.27
62038;BME280;47991;42.974;12.082;2022-10-31T09:00:23;98527.56;;;16.35;65.69
62038;BME280;47991;42.974;12.082;2022-10-31T09:03:09;98523.77;;;16.54;64.08
62038;BME280;47991;42.974;12.082;2022-10-31T09:05:37;98522.52;;;16.71;64.53
62038;BME280;47991;42.974;12.082;2022-10-31T09:08:05;98525.32;;;16.69;63.76
62038;BME280;47991;42.974;12.082;2022-10-31T09:10:35;98520.02;;;16.72;63.76
62038;BME280;47991;42.974;12.082;2022-10-31T09:13:11;98521.77;;;16.99;62.26
62038;BME280;47991;42.974;12.082;2022-10-31T09:15:59;98521.86;;;17.09;61.81
62038;BME280;47991;42.974;12.082;2022-10-31T09:18:26;98526.98;;;16.98;60.41
62038;BME280;47991;42.974;12.082;2022-10-31T09:21:02;98524.92;;;17.00;62.20
62038;BME280;47991;42.974;12.082;2022-10-31T09:23:30;98527.65;;;17.03;60.69
62038;BME280;47991;42.974;12.082;2022-10-31T09:26:00;98528.31;;;17.13;61.66
62038;BME280;47991;42.974;12.082;2022-10-31T09:28:31;98530.33;;;17.12;58.66
62038;BME280;47991;42.974;12.082;2022-10-31T09:31:04;98523.00;;;17.29;58.57
62038;BME280;47991;42.974;12.082;2022-10-31T09:33:54;98524.09;;;17.12;58.28
62038;BME280;47991;42.974;12.082;2022-10-31T09:36:40;98523.25;;;17.83;58.82
62038;BME280;47991;42.974;12.082;2022-10-31T09:39:10;98513.95;;;20.11;54.30
62038;BME280;47991;42.974;12.082;2022-10-31T09:42:00;98508.40;;;21.90;47.76
62038;BME280;47991;42.974;12.082;2022-10-31T09:50:44;98506.91;;;23.56;43.38
62038;BME280;47991;42.974;12.082;2022-10-31T09:54:27;98503.61;;;22.71;44.13
62038;BME280;47991;42.974;12.082;2022-10-31T09:56:31;98499.64;;;22.79;44.52
62038;BME280;47991;42.974;12.082;2022-10-31T09:59:02;98503.61;;;22.07;46.37
62038;BME280;47991;42.974;12.082;2022-10-31T10:04:34;98499.55;;;21.08;50.76
62038;BME280;47991;42.974;12.082;2022-10-31T10:13:52;98507.55;;;20.09;50.44
62038;BME280;47991;42.974;12.082;2022-10-31T10:22:40;98500.61;;;20.10;50.11
62038;BME280;47991;42.974;12.082;2022-10-31T10:30:42;98498.76;;;20.08;51.87
62038;BME280;47991;42.974;12.082;2022-10-31T10:33:19;98498.36;;;20.03;51.67
62038;BME280;47991;42.974;12.082;2022-10-31T10:35:51;98504.39;;;19.91;51.48
62038;BME280;47991;42.974;12.082;2022-10-31T10:38:39;98497.23;;;19.97;52.97
62038;BME280;47991;42.974;12.082;2022-10-31T10:41:17;98492.88;;;20.11;52.09
62038;BME280;47991;42.974;12.082;2022-10-31T10:43:45;98492.81;;;20.09;51.81
62038;BME280;47991;42.974;12.082;2022-10-31T10:49:30;98492.05;;;19.93;52.28
62038;BME280;47991;42.974;12.082;2022-10-31T10:52:30;98495.14;;;19.82;51.66
62038;BME280;47991;42.974;12.082;2022-10-31T10:58:02;98487.80;;;19.89;53.08
62038;BME280;47991;42.974;12.082;2022-10-31T11:00:34;98486.76;;;20.30;51.54
62038;BME280;47991;42.974;12.082;2022-10-31T11:03:02;98481.05;;;20.68;51.73
62038;BME280;47991;42.974;12.082;2022-10-31T11:05:55;98477.41;;;20.72;49.65
62038;BME280;47991;42.974;12.082;2022-10-31T11:08:31;98471.64;;;21.71;48.30
62038;BME280;47991;42.974;12.082;2022-10-31T11:11:07;98467.95;;;21.87;49.22
62038;BME280;47991;42.974;12.082;2022-10-31T11:13:36;98468.11;;;21.43;48.92
62038;BME280;47991;42.974;12.082;2022-10-31T11:16:07;98467.46;;;21.27;49.28
62038;BME280;47991;42.974;12.082;2022-10-31T11:18:54;98467.70;;;21.20;50.46
62038;BME280;47991;42.974;12.082;2022-10-31T11:21:32;98465.31;;;21.27;50.56
62038;BME280;47991;42.974;12.082;2022-10-31T11:24:22;98461.38;;;21.39;50.14
62038;BME280;47991;42.974;12.082;2022-10-31T11:26:51;98459.58;;;21.74;48.48
62038;BME280;47991;42.974;12.082;2022-10-31T11:29:25;98451.20;;;22.76;46.49
62038;BME280;47991;42.974;12.082;2022-10-31T11:31:55;98452.00;;;22.99;47.11
62038;BME280;47991;42.974;12.082;2022-10-31T11:34:35;98447.76;;;23.48;44.57
62038;BME280;47991;42.974;12.082;2022-10-31T11:37:14;98447.78;;;23.32;45.85
62038;BME280;47991;42.974;12.082;2022-10-31T11:39:45;98441.86;;;23.29;45.48
62038;BME280;47991;42.974;12.082;2022-10-31T11:42:16;98441.42;;;23.01;46.83
62038;BME280;47991;42.974;12.082;2022-10-31T11:44:43;98438.79;;;22.60;47.30
62038;BME280;47991;42.974;12.082;2022-10-31T11:47:17;98438.66;;;22.48;47.92
62038;BME280;47991;42.974;12.082;2022-10-31T11:49:47;98433.82;;;22.42;47.56
62038;BME280;47991;42.974;12.082;2022-10-31T11:52:20;98431.86;;;22.33;48.37
62038;BME280;47991;42.974;12.082;2022-10-31T11:55:01;98432.48;;;22.18;49.85
62038;BME280;47991;42.974;12.082;2022-10-31T11:57:41;98430.47;;;22.18;49.37
62038;BME280;47991;42.974;12.082;2022-10-31T12:00:35;98425.87;;;22.12;49.77
62038;BME280;47991;42.974;12.082;2022-10-31T12:06:01;98424.02;;;22.07;48.98
62038;BME280;47991;42.974;12.082;2022-10-31T12:08:34;98414.96;;;22.19;48.50
62038;BME280;47991;42.974;12.082;2022-10-31T12:11:23;98411.73;;;22.35;48.92
62038;BME280;47991;42.974;12.082;2022-10-31T12:17:52;98403.20;;;22.42;48.22
62038;BME280;47991;42.974;12.082;2022-10-31T12:31:36;98391.23;;;23.51;46.99
62038;BME280;47991;42.974;12.082;2022-10-31T12:34:42;98388.61;;;23.37;46.55
62038;BME280;47991;42.974;12.082;2022-10-31T12:37:25;98390.05;;;23.29;47.06
62038;BME280;47991;42.974;12.082;2022-10-31T12:42:58;98387.48;;;23.27;46.73
62038;BME280;47991;42.974;12.082;2022-10-31T12:48:29;98385.04;;;23.62;47.23
62038;BME280;47991;42.974;12.082;2022-10-31T12:57:03;98372.73;;;24.17;44.91
62038;BME280;47991;42.974;12.082;2022-10-31T12:59:42;98370.13;;;24.23;45.72
62038;BME280;47991;42.974;12.082;2022-10-31T13:05:33;98366.21;;;24.17;44.95
62038;BME280;47991;42.974;12.082;2022-10-31T13:10:33;98368.11;;;24.06;45.98
62038;BME280;47991;42.974;12.082;2022-10-31T13:13:13;98369.88;;;24.04;45.89
62038;BME280;47991;42.974;12.082;2022-10-31T13:15:53;98365.98;;;23.96;45.76
62038;BME280;47991;42.974;12.082;2022-10-31T13:18:47;98366.59;;;24.02;46.48
62038;BME280;47991;42.974;12.082;2022-10-31T13:21:23;98364.66;;;23.97;46.27
62038;BME280;47991;42.974;12.082;2022-10-31T13:23:51;98365.42;;;24.06;46.23
62038;BME280;47991;42.974;12.082;2022-10-31T13:26:45;98368.88;;;24.13;46.72
62038;BME280;47991;42.974;12.082;2022-10-31T13:29:32;98360.49;;;24.16;45.69
62038;BME280;47991;42.974;12.082;2022-10-31T13:32:03;98363.31;;;24.15;46.29
62038;BME280;47991;42.974;12.082;2022-10-31T13:34:42;98360.41;;;24.15;46.06
62038;BME280;47991;42.974;12.082;2022-10-31T13:37:34;98358.16;;;24.31;46.28
62038;BME280;47991;42.974;12.082;2022-10-31T13:40:45;98357.15;;;24.42;45.95
62038;BME280;47991;42.974;12.082;2022-10-31T13:45:56;98355.62;;;24.21;46.31
62038;BME280;47991;42.974;12.082;2022-10-31T13:51:04;98351.53;;;24.08;47.54
62038;BME280;47991;42.974;12.082;2022-10-31T13:53:59;98350.82;;;23.91;47.94
62038;BME280;47991;42.974;12.082;2022-10-31T13:56:29;98354.80;;;23.96;47.90
62038;BME280;47991;42.974;12.082;2022-10-31T13:59:01;98354.50;;;23.95;48.46
62038;BME280;47991;42.974;12.082;2022-10-31T14:01:31;98353.55;;;23.83;48.47
62038;BME280;47991;42.974;12.082;2022-10-31T14:04:06;98358.85;;;23.67;48.23
62038;BME280;47991;42.974;12.082;2022-10-31T14:06:41;98361.35;;;23.60;48.12
62038;BME280;47991;42.974;12.082;2022-10-31T14:11:50;98363.66;;;23.38;47.95
62038;BME280;47991;42.974;12.082;2022-10-31T14:14:20;98366.39;;;23.25;47.78
62038;BME280;47991;42.974;12.082;2022-10-31T14:16:55;98368.73;;;23.20;47.88
62038;BME280;47991;42.974;12.082;2022-10-31T14:19:24;98369.47;;;23.00;47.54
62038;BME280;47991;42.974;12.082;2022-10-31T14:21:53;98366.47;;;22.92;47.37
62038;BME280;47991;42.974;12.082;2022-10-31T14:26:57;98362.02;;;22.73;47.21
62038;BME280;47991;42.974;12.082;2022-10-31T14:29:33;98363.10;;;22.67;47.15
62038;BME280;47991;42.974;12.082;2022-10-31T14:32:18;98362.73;;;22.60;46.84
62038;BME280;47991;42.974;12.082;2022-10-31T14:37:30;98365.28;;;22.51;46.61
62038;BME280;47991;42.974;12.082;2022-10-31T14:46:10;98370.27;;;22.50;46.11
62038;BME280;47991;42.974;12.082;2022-10-31T14:51:20;98368.02;;;22.43;46.09
62038;BME280;47991;42.974;12.082;2022-10-31T14:53:56;98367.10;;;22.38;46.75
62038;BME280;47991;42.974;12.082;2022-10-31T14:56:30;98366.02;;;22.35;48.11
62038;BME280;47991;42.974;12.082;2022-10-31T14:59:02;98366.39;;;22.32;47.93
62038;BME280;47991;42.974;12.082;2022-10-31T15:01:33;98366.73;;;22.29;47.99
62038;BME280;47991;42.974;12.082;2022-10-31T15:04:16;98366.70;;;22.24;47.81
62038;BME280;47991;42.974;12.082;2022-10-31T15:06:49;98368.37;;;22.20;47.72
62038;BME280;47991;42.974;12.082;2022-10-31T15:09:33;98365.29;;;22.18;48.06
62038;BME280;47991;42.974;12.082;2022-10-31T15:14:48;98369.14;;;22.09;49.86
62038;BME280;47991;42.974;12.082;2022-10-31T15:17:17;98365.40;;;22.03;52.16
62038;BME280;47991;42.974;12.082;2022-10-31T15:19:45;98360.91;;;21.89;53.39
62038;BME280;47991;42.974;12.082;2022-10-31T15:22:21;98370.50;;;21.71;54.63
62038;BME280;47991;42.974;12.082;2022-10-31T15:24:50;98365.05;;;21.58;55.37
62038;BME280;47991;42.974;12.082;2022-10-31T15:27:24;98363.84;;;21.36;56.35
62038;BME280;47991;42.974;12.082;2022-10-31T15:29:56;98367.23;;;21.17;56.88
62038;BME280;47991;42.974;12.082;2022-10-31T15:32:25;98367.52;;;21.00;57.44
62038;BME280;47991;42.974;12.082;2022-10-31T15:34:55;98370.40;;;20.85;57.20
62038;BME280;47991;42.974;12.082;2022-10-31T15:37:25;98369.40;;;20.72;57.24
62038;BME280;47991;42.974;12.082;2022-10-31T15:39:53;98370.20;;;20.58;57.93
62038;BME280;47991;42.974;12.082;2022-10-31T15:42:28;98371.52;;;20.45;58.29
62038;BME280;47991;42.974;12.082;2022-10-31T15:48:20;98372.86;;;19.84;60.16